sensor_id;sensor_type;location;lat;lon;timestamp;P1;durP1;ratioP1;P2;durP2;ratioP2
52708;SDS011;38606;52.986;6.980;2024-01-11T00:00:38;54.95;;;24.75;;
52708;SDS011;38606;52.986;6.980;2024-01-11T00:03:05;53.45;;;25.35;;
52708;SDS011;38606;52.986;6.980;2024-01-11T00:05:31;49.53;;;23.63;;
52708;SDS011;38606;52.986;6.980;2024-01-11T00:07:57;53.08;;;24.63;;
52708;SDS011;38606;52.986;6.980;2024-01-11T00:10:23;54.80;;;25.08;;
52708;SDS011;38606;52.986;6.980;2024-01-11T00:12:49;53.97;;;25.27;;
52708;SDS011;38606;52.986;6.980;2024-01-11T00:15:15;56.80;;;26.35;;
52708;SDS011;38606;52.986;6.980;2024-01-11T00:17:41;53.88;;;25.63;;
52708;SDS011;38606;52.986;6.980;2024-01-11T00:20:07;56.97;;;24.95;;
52708;SDS011;38606;52.986;6.980;2024-01-11T00:22:34;55.85;;;26.65;;
52708;SDS011;38606;52.986;6.980;2024-01-11T00:25:00;54.95;;;25.83;;
52708;SDS011;38606;52.986;6.980;2024-01-11T00:27:26;56.83;;;25.73;;
52708;SDS011;38606;52.986;6.980;2024-01-11T00:29:53;57.38;;;26.10;;
52708;SDS011;38606;52.986;6.980;2024-01-11T00:32:19;54.67;;;26.27;;
52708;SDS011;38606;52.986;6.980;2024-01-11T00:34:46;57.60;;;26.35;;
52708;SDS011;38606;52.986;6.980;2024-01-11T00:37:12;55.65;;;25.00;;
52708;SDS011;38606;52.986;6.980;2024-01-11T00:39:38;63.45;;;27.85;;
52708;SDS011;38606;52.986;6.980;2024-01-11T00:42:04;57.80;;;26.48;;
52708;SDS011;38606;52.986;6.980;2024-01-11T00:44:30;59.22;;;27.38;;
52708;SDS011;38606;52.986;6.980;2024-01-11T00:46:57;57.97;;;25.52;;
52708;SDS011;38606;52.986;6.980;2024-01-11T00:49:22;61.42;;;26.88;;
52708;SDS011;38606;52.986;6.980;2024-01-11T00:51:48;57.97;;;26.83;;
52708;SDS011;38606;52.986;6.980;2024-01-11T00:54:14;61.67;;;25.63;;
52708;SDS011;38606;52.986;6.980;2024-01-11T00:56:40;56.20;;;25.73;;
52708;SDS011;38606;52.986;6.980;2024-01-11T00:59:06;53.92;;;25.10;;
52708;SDS011;38606;52.986;6.980;2024-01-11T01:01:33;59.33;;;26.85;;
52708;SDS011;38606;52.986;6.980;2024-01-11T01:03:59;57.65;;;26.05;;
52708;SDS011;38606;52.986;6.980;2024-01-11T01:06:25;58.67;;;25.33;;
52708;SDS011;38606;52.986;6.980;2024-01-11T01:08:51;57.38;;;25.70;;
52708;SDS011;38606;52.986;6.980;2024-01-11T01:11:17;59.05;;;26.48;;
52708;SDS011;38606;52.986;6.980;2024-01-11T01:13:43;53.05;;;25.38;;
52708;SDS011;38606;52.986;6.980;2024-01-11T01:16:09;58.05;;;26.80;;
52708;SDS011;38606;52.986;6.980;2024-01-11T01:18:35;56.58;;;25.85;;
52708;SDS011;38606;52.986;6.980;2024-01-11T01:21:01;62.17;;;27.52;;
52708;SDS011;38606;52.986;6.980;2024-01-11T01:23:27;58.90;;;25.73;;
52708;SDS011;38606;52.986;6.980;2024-01-11T01:25:53;60.78;;;26.45;;
52708;SDS011;38606;52.986;6.980;2024-01-11T01:28:19;58.47;;;26.58;;
52708;SDS011;38606;52.986;6.980;2024-01-11T01:30:45;55.63;;;24.85;;
52708;SDS011;38606;52.986;6.980;2024-01-11T01:33:12;62.60;;;28.42;;
52708;SDS011;38606;52.986;6.980;2024-01-11T01:35:38;57.47;;;26.45;;
52708;SDS011;38606;52.986;6.980;2024-01-11T01:38:04;59.47;;;26.70;;
52708;SDS011;38606;52.986;6.980;2024-01-11T01:40:30;56.17;;;25.77;;
52708;SDS011;38606;52.986;6.980;2024-01-11T01:42:59;61.53;;;26.98;;
52708;SDS011;38606;52.986;6.980;2024-01-11T01:45:25;61.85;;;26.48;;
52708;SDS011;38606;52.986;6.980;2024-01-11T01:47:52;61.35;;;26.92;;
52708;SDS011;38606;52.986;6.980;2024-01-11T01:50:19;58.47;;;26.98;;
52708;SDS011;38606;52.986;6.980;2024-01-11T01:52:46;59.80;;;27.25;;
52708;SDS011;38606;52.986;6.980;2024-01-11T01:55:12;63.72;;;27.20;;
52708;SDS011;38606;52.986;6.980;2024-01-11T01:57:40;58.20;;;25.73;;
52708;SDS011;38606;52.986;6.980;2024-01-11T02:00:08;62.60;;;28.33;;
52708;SDS011;38606;52.986;6.980;2024-01-11T02:02:35;66.88;;;28.45;;
52708;SDS011;38606;52.986;6.980;2024-01-11T02:05:01;58.50;;;25.85;;
52708;SDS011;38606;52.986;6.980;2024-01-11T02:07:27;62.70;;;28.63;;
52708;SDS011;38606;52.986;6.980;2024-01-11T02:09:53;62.63;;;28.40;;
52708;SDS011;38606;52.986;6.980;2024-01-11T02:12:20;62.50;;;27.23;;
52708;SDS011;38606;52.986;6.980;2024-01-11T02:14:46;59.13;;;26.30;;
52708;SDS011;38606;52.986;6.980;2024-01-11T02:17:12;61.40;;;26.70;;
52708;SDS011;38606;52.986;6.980;2024-01-11T02:19:38;58.35;;;26.52;;
52708;SDS011;38606;52.986;6.980;2024-01-11T02:22:08;60.05;;;26.98;;
52708;SDS011;38606;52.986;6.980;2024-01-11T02:24:38;60.35;;;27.35;;
52708;SDS011;38606;52.986;6.980;2024-01-11T02:27:04;62.58;;;27.45;;
52708;SDS011;38606;52.986;6.980;2024-01-11T02:29:30;66.90;;;28.08;;
52708;SDS011;38606;52.986;6.980;2024-01-11T02:31:57;62.17;;;28.17;;
52708;SDS011;38606;52.986;6.980;2024-01-11T02:34:24;60.13;;;25.85;;
52708;SDS011;38606;52.986;6.980;2024-01-11T02:36:52;66.45;;;28.45;;
52708;SDS011;38606;52.986;6.980;2024-01-11T02:39:18;71.43;;;29.80;;
52708;SDS011;38606;52.986;6.980;2024-01-11T02:41:45;64.82;;;28.30;;
52708;SDS011;38606;52.986;6.980;2024-01-11T02:44:11;63.33;;;28.85;;
52708;SDS011;38606;52.986;6.980;2024-01-11T02:46:37;62.17;;;27.65;;
52708;SDS011;38606;52.986;6.980;2024-01-11T02:49:03;61.60;;;26.55;;
52708;SDS011;38606;52.986;6.980;2024-01-11T02:51:29;67.93;;;28.02;;
52708;SDS011;38606;52.986;6.980;2024-01-11T02:53:56;63.97;;;27.73;;
52708;SDS011;38606;52.986;6.980;2024-01-11T02:56:23;65.45;;;27.73;;
52708;SDS011;38606;52.986;6.980;2024-01-11T02:58:49;60.33;;;26.67;;
52708;SDS011;38606;52.986;6.980;2024-01-11T03:01:15;63.15;;;28.33;;
52708;SDS011;38606;52.986;6.980;2024-01-11T03:03:41;61.22;;;27.60;;
52708;SDS011;38606;52.986;6.980;2024-01-11T03:06:07;62.00;;;26.73;;
52708;SDS011;38606;52.986;6.980;2024-01-11T03:08:33;62.22;;;27.20;;
52708;SDS011;38606;52.986;6.980;2024-01-11T03:10:59;61.88;;;26.45;;
52708;SDS011;38606;52.986;6.980;2024-01-11T03:13:25;61.65;;;27.13;;
52708;SDS011;38606;52.986;6.980;2024-01-11T03:15:51;65.13;;;27.80;;
52708;SDS011;38606;52.986;6.980;2024-01-11T03:18:17;62.95;;;27.05;;
52708;SDS011;38606;52.986;6.980;2024-01-11T03:20:44;62.55;;;27.00;;
52708;SDS011;38606;52.986;6.980;2024-01-11T03:23:10;65.00;;;27.65;;
52708;SDS011;38606;52.986;6.980;2024-01-11T03:25:36;60.95;;;27.23;;
52708;SDS011;38606;52.986;6.980;2024-01-11T03:28:01;64.88;;;27.58;;
52708;SDS011;38606;52.986;6.980;2024-01-11T03:30:27;65.78;;;27.77;;
52708;SDS011;38606;52.986;6.980;2024-01-11T03:32:53;64.05;;;27.38;;
52708;SDS011;38606;52.986;6.980;2024-01-11T03:35:20;60.25;;;26.98;;
52708;SDS011;38606;52.986;6.980;2024-01-11T03:37:46;62.63;;;27.17;;
52708;SDS011;38606;52.986;6.980;2024-01-11T03:40:12;60.97;;;27.98;;
52708;SDS011;38606;52.986;6.980;2024-01-11T03:42:39;65.10;;;28.13;;
52708;SDS011;38606;52.986;6.980;2024-01-11T03:45:05;58.25;;;26.08;;
52708;SDS011;38606;52.986;6.980;2024-01-11T03:47:31;60.40;;;27.10;;
52708;SDS011;38606;52.986;6.980;2024-01-11T03:49:57;57.83;;;26.45;;
52708;SDS011;38606;52.986;6.980;2024-01-11T03:52:23;64.20;;;27.83;;
52708;SDS011;38606;52.986;6.980;2024-01-11T03:54:50;61.53;;;27.88;;
52708;SDS011;38606;52.986;6.980;2024-01-11T03:57:16;66.10;;;28.35;;
52708;SDS011;38606;52.986;6.980;2024-01-11T03:59:42;56.50;;;26.08;;
52708;SDS011;38606;52.986;6.980;2024-01-11T04:02:08;54.67;;;25.30;;
52708;SDS011;38606;52.986;6.980;2024-01-11T04:04:35;61.60;;;27.52;;
52708;SDS011;38606;52.986;6.980;2024-01-11T04:07:01;59.65;;;25.92;;
52708;SDS011;38606;52.986;6.980;2024-01-11T04:09:27;58.42;;;26.48;;
52708;SDS011;38606;52.986;6.980;2024-01-11T04:11:53;68.28;;;28.33;;
52708;SDS011;38606;52.986;6.980;2024-01-11T04:14:19;60.47;;;27.30;;
52708;SDS011;38606;52.986;6.980;2024-01-11T04:16:45;63.63;;;27.40;;
52708;SDS011;38606;52.986;6.980;2024-01-11T04:19:11;62.63;;;27.52;;
52708;SDS011;38606;52.986;6.980;2024-01-11T04:21:37;69.13;;;29.20;;
52708;SDS011;38606;52.986;6.980;2024-01-11T04:24:04;64.80;;;26.33;;
52708;SDS011;38606;52.986;6.980;2024-01-11T04:26:31;63.88;;;28.55;;
52708;SDS011;38606;52.986;6.980;2024-01-11T04:28:57;60.85;;;27.50;;
52708;SDS011;38606;52.986;6.980;2024-01-11T04:31:25;61.65;;;27.65;;
52708;SDS011;38606;52.986;6.980;2024-01-11T04:33:51;62.65;;;26.83;;
52708;SDS011;38606;52.986;6.980;2024-01-11T04:36:17;64.38;;;27.30;;
52708;SDS011;38606;52.986;6.980;2024-01-11T04:38:43;61.08;;;26.83;;
52708;SDS011;38606;52.986;6.980;2024-01-11T04:43:42;62.35;;;27.38;;
52708;SDS011;38606;52.986;6.980;2024-01-11T04:46:21;64.50;;;27.77;;
52708;SDS011;38606;52.986;6.980;2024-01-11T04:48:47;60.72;;;26.52;;
52708;SDS011;38606;52.986;6.980;2024-01-11T04:51:14;61.55;;;26.25;;
52708;SDS011;38606;52.986;6.980;2024-01-11T04:53:40;65.15;;;28.25;;
52708;SDS011;38606;52.986;6.980;2024-01-11T04:56:07;64.60;;;27.73;;
52708;SDS011;38606;52.986;6.980;2024-01-11T04:58:34;68.63;;;28.83;;
52708;SDS011;38606;52.986;6.980;2024-01-11T05:01:00;66.63;;;29.40;;
52708;SDS011;38606;52.986;6.980;2024-01-11T05:03:27;69.57;;;30.48;;
52708;SDS011;38606;52.986;6.980;2024-01-11T05:05:54;74.00;;;30.55;;
52708;SDS011;38606;52.986;6.980;2024-01-11T05:08:20;81.10;;;32.00;;
52708;SDS011;38606;52.986;6.980;2024-01-11T05:10:46;86.68;;;32.58;;
52708;SDS011;38606;52.986;6.980;2024-01-11T05:13:12;77.70;;;33.33;;
52708;SDS011;38606;52.986;6.980;2024-01-11T05:15:38;78.43;;;32.15;;
52708;SDS011;38606;52.986;6.980;2024-01-11T05:18:04;81.60;;;32.83;;
52708;SDS011;38606;52.986;6.980;2024-01-11T05:20:30;80.65;;;31.65;;
52708;SDS011;38606;52.986;6.980;2024-01-11T05:22:56;74.97;;;31.10;;
52708;SDS011;38606;52.986;6.980;2024-01-11T05:25:22;85.68;;;32.53;;
52708;SDS011;38606;52.986;6.980;2024-01-11T05:27:49;79.60;;;32.47;;
52708;SDS011;38606;52.986;6.980;2024-01-11T05:30:15;81.25;;;32.97;;
52708;SDS011;38606;52.986;6.980;2024-01-11T05:32:41;78.30;;;33.55;;
52708;SDS011;38606;52.986;6.980;2024-01-11T05:35:07;84.13;;;32.75;;
52708;SDS011;38606;52.986;6.980;2024-01-11T05:37:35;82.45;;;34.40;;
52708;SDS011;38606;52.986;6.980;2024-01-11T05:40:01;80.57;;;31.88;;
52708;SDS011;38606;52.986;6.980;2024-01-11T05:42:28;84.85;;;34.20;;
52708;SDS011;38606;52.986;6.980;2024-01-11T05:44:54;84.30;;;33.90;;
52708;SDS011;38606;52.986;6.980;2024-01-11T05:47:20;80.15;;;34.17;;
52708;SDS011;38606;52.986;6.980;2024-01-11T05:49:46;76.72;;;32.15;;
52708;SDS011;38606;52.986;6.980;2024-01-11T05:52:13;81.25;;;31.23;;
52708;SDS011;38606;52.986;6.980;2024-01-11T05:54:39;81.45;;;33.90;;
52708;SDS011;38606;52.986;6.980;2024-01-11T05:57:05;78.05;;;33.10;;
52708;SDS011;38606;52.986;6.980;2024-01-11T05:59:32;86.47;;;35.22;;
52708;SDS011;38606;52.986;6.980;2024-01-11T06:01:58;88.65;;;34.70;;
52708;SDS011;38606;52.986;6.980;2024-01-11T06:04:26;79.88;;;32.67;;
52708;SDS011;38606;52.986;6.980;2024-01-11T06:06:52;82.20;;;33.08;;
52708;SDS011;38606;52.986;6.980;2024-01-11T06:09:18;85.95;;;34.05;;
52708;SDS011;38606;52.986;6.980;2024-01-11T06:11:44;84.25;;;33.40;;
52708;SDS011;38606;52.986;6.980;2024-01-11T06:14:10;82.28;;;33.92;;
52708;SDS011;38606;52.986;6.980;2024-01-11T06:16:37;82.57;;;34.58;;
52708;SDS011;38606;52.986;6.980;2024-01-11T06:19:03;82.63;;;33.47;;
52708;SDS011;38606;52.986;6.980;2024-01-11T06:21:29;83.32;;;33.72;;
52708;SDS011;38606;52.986;6.980;2024-01-11T06:23:55;89.60;;;34.72;;
52708;SDS011;38606;52.986;6.980;2024-01-11T06:26:21;84.68;;;35.88;;
52708;SDS011;38606;52.986;6.980;2024-01-11T06:28:48;76.28;;;32.45;;
52708;SDS011;38606;52.986;6.980;2024-01-11T06:31:14;76.50;;;34.03;;
52708;SDS011;38606;52.986;6.980;2024-01-11T06:33:40;78.28;;;33.92;;
52708;SDS011;38606;52.986;6.980;2024-01-11T06:36:06;78.60;;;34.13;;
52708;SDS011;38606;52.986;6.980;2024-01-11T06:38:32;78.70;;;34.35;;
52708;SDS011;38606;52.986;6.980;2024-01-11T06:40:59;77.95;;;31.42;;
52708;SDS011;38606;52.986;6.980;2024-01-11T06:43:25;75.38;;;32.60;;
52708;SDS011;38606;52.986;6.980;2024-01-11T06:45:51;74.95;;;31.30;;
52708;SDS011;38606;52.986;6.980;2024-01-11T06:48:18;74.28;;;32.15;;
52708;SDS011;38606;52.986;6.980;2024-01-11T06:50:44;77.00;;;32.83;;
52708;SDS011;38606;52.986;6.980;2024-01-11T06:53:10;79.13;;;34.78;;
52708;SDS011;38606;52.986;6.980;2024-01-11T06:55:36;77.68;;;33.58;;
52708;SDS011;38606;52.986;6.980;2024-01-11T06:58:02;81.07;;;34.97;;
52708;SDS011;38606;52.986;6.980;2024-01-11T07:00:28;76.45;;;33.22;;
52708;SDS011;38606;52.986;6.980;2024-01-11T07:02:54;78.18;;;33.75;;
52708;SDS011;38606;52.986;6.980;2024-01-11T07:05:20;81.55;;;35.38;;
52708;SDS011;38606;52.986;6.980;2024-01-11T07:07:46;77.43;;;33.63;;
52708;SDS011;38606;52.986;6.980;2024-01-11T07:10:12;79.43;;;34.08;;
52708;SDS011;38606;52.986;6.980;2024-01-11T07:12:38;77.57;;;33.50;;
52708;SDS011;38606;52.986;6.980;2024-01-11T07:15:06;83.10;;;35.28;;
52708;SDS011;38606;52.986;6.980;2024-01-11T07:17:33;78.57;;;34.35;;
52708;SDS011;38606;52.986;6.980;2024-01-11T07:19:59;77.95;;;32.53;;
52708;SDS011;38606;52.986;6.980;2024-01-11T07:22:25;76.35;;;33.53;;
52708;SDS011;38606;52.986;6.980;2024-01-11T07:24:51;75.20;;;32.55;;
52708;SDS011;38606;52.986;6.980;2024-01-11T07:27:17;77.60;;;33.83;;
52708;SDS011;38606;52.986;6.980;2024-01-11T07:29:44;75.30;;;33.15;;
52708;SDS011;38606;52.986;6.980;2024-01-11T07:32:09;77.03;;;32.97;;
52708;SDS011;38606;52.986;6.980;2024-01-11T07:34:35;74.57;;;33.08;;
52708;SDS011;38606;52.986;6.980;2024-01-11T07:37:01;67.53;;;31.95;;
52708;SDS011;38606;52.986;6.980;2024-01-11T07:39:27;73.47;;;32.95;;
52708;SDS011;38606;52.986;6.980;2024-01-11T07:41:56;75.60;;;34.00;;
52708;SDS011;38606;52.986;6.980;2024-01-11T07:44:21;77.00;;;34.13;;
52708;SDS011;38606;52.986;6.980;2024-01-11T07:46:48;67.88;;;31.17;;
52708;SDS011;38606;52.986;6.980;2024-01-11T07:49:14;70.63;;;31.60;;
52708;SDS011;38606;52.986;6.980;2024-01-11T07:51:40;73.10;;;32.33;;
52708;SDS011;38606;52.986;6.980;2024-01-11T07:54:06;69.93;;;33.22;;
52708;SDS011;38606;52.986;6.980;2024-01-11T07:56:32;73.15;;;33.42;;
52708;SDS011;38606;52.986;6.980;2024-01-11T07:58:58;70.82;;;33.25;;
52708;SDS011;38606;52.986;6.980;2024-01-11T08:01:24;71.38;;;32.25;;
52708;SDS011;38606;52.986;6.980;2024-01-11T08:03:50;71.38;;;33.67;;
52708;SDS011;38606;52.986;6.980;2024-01-11T08:06:17;73.38;;;33.15;;
52708;SDS011;38606;52.986;6.980;2024-01-11T08:08:43;74.97;;;32.38;;
52708;SDS011;38606;52.986;6.980;2024-01-11T08:11:09;70.38;;;32.45;;
52708;SDS011;38606;52.986;6.980;2024-01-11T08:13:37;77.63;;;33.65;;
52708;SDS011;38606;52.986;6.980;2024-01-11T08:16:03;73.72;;;32.97;;
52708;SDS011;38606;52.986;6.980;2024-01-11T08:18:33;74.82;;;32.78;;
52708;SDS011;38606;52.986;6.980;2024-01-11T08:20:58;68.30;;;31.88;;
52708;SDS011;38606;52.986;6.980;2024-01-11T08:23:24;71.60;;;32.35;;
52708;SDS011;38606;52.986;6.980;2024-01-11T08:25:51;72.65;;;32.58;;
52708;SDS011;38606;52.986;6.980;2024-01-11T08:28:17;73.40;;;31.90;;
52708;SDS011;38606;52.986;6.980;2024-01-11T08:30:45;71.70;;;33.22;;
52708;SDS011;38606;52.986;6.980;2024-01-11T08:33:11;75.38;;;33.45;;
52708;SDS011;38606;52.986;6.980;2024-01-11T08:35:39;74.80;;;33.72;;
52708;SDS011;38606;52.986;6.980;2024-01-11T08:38:06;72.95;;;33.20;;
52708;SDS011;38606;52.986;6.980;2024-01-11T08:40:31;74.68;;;33.33;;
52708;SDS011;38606;52.986;6.980;2024-01-11T08:42:57;75.07;;;34.22;;
52708;SDS011;38606;52.986;6.980;2024-01-11T08:45:23;72.13;;;33.80;;
52708;SDS011;38606;52.986;6.980;2024-01-11T08:47:49;76.53;;;35.97;;
52708;SDS011;38606;52.986;6.980;2024-01-11T08:50:16;86.18;;;42.95;;
52708;SDS011;38606;52.986;6.980;2024-01-11T08:52:43;79.40;;;37.03;;
52708;SDS011;38606;52.986;6.980;2024-01-11T08:55:09;72.68;;;34.20;;
52708;SDS011;38606;52.986;6.980;2024-01-11T08:57:37;69.97;;;32.90;;
52708;SDS011;38606;52.986;6.980;2024-01-11T09:00:04;68.28;;;31.85;;
52708;SDS011;38606;52.986;6.980;2024-01-11T09:02:33;65.00;;;29.77;;
52708;SDS011;38606;52.986;6.980;2024-01-11T09:05:00;70.05;;;32.10;;
52708;SDS011;38606;52.986;6.980;2024-01-11T09:07:27;71.07;;;31.77;;
52708;SDS011;38606;52.986;6.980;2024-01-11T09:09:53;67.13;;;31.95;;
52708;SDS011;38606;52.986;6.980;2024-01-11T09:12:19;68.45;;;32.53;;
52708;SDS011;38606;52.986;6.980;2024-01-11T09:14:46;65.97;;;31.25;;
52708;SDS011;38606;52.986;6.980;2024-01-11T09:17:12;69.45;;;32.70;;
52708;SDS011;38606;52.986;6.980;2024-01-11T09:19:38;69.60;;;32.88;;
52708;SDS011;38606;52.986;6.980;2024-01-11T09:22:05;67.25;;;31.35;;
52708;SDS011;38606;52.986;6.980;2024-01-11T09:24:33;68.20;;;32.80;;
52708;SDS011;38606;52.986;6.980;2024-01-11T09:26:59;68.43;;;32.17;;
52708;SDS011;38606;52.986;6.980;2024-01-11T09:29:25;68.95;;;31.17;;
52708;SDS011;38606;52.986;6.980;2024-01-11T09:31:52;67.68;;;32.03;;
52708;SDS011;38606;52.986;6.980;2024-01-11T09:34:18;63.83;;;30.35;;
52708;SDS011;38606;52.986;6.980;2024-01-11T09:36:44;69.38;;;31.98;;
52708;SDS011;38606;52.986;6.980;2024-01-11T09:39:10;66.30;;;31.77;;
52708;SDS011;38606;52.986;6.980;2024-01-11T09:41:38;67.85;;;31.73;;
52708;SDS011;38606;52.986;6.980;2024-01-11T09:44:08;62.60;;;30.75;;
52708;SDS011;38606;52.986;6.980;2024-01-11T09:46:35;61.95;;;31.55;;
52708;SDS011;38606;52.986;6.980;2024-01-11T09:49:02;66.97;;;32.00;;
52708;SDS011;38606;52.986;6.980;2024-01-11T09:51:29;61.25;;;28.70;;
52708;SDS011;38606;52.986;6.980;2024-01-11T09:53:55;60.80;;;29.67;;
52708;SDS011;38606;52.986;6.980;2024-01-11T09:56:22;59.00;;;29.10;;
52708;SDS011;38606;52.986;6.980;2024-01-11T09:58:49;62.85;;;30.67;;
52708;SDS011;38606;52.986;6.980;2024-01-11T10:01:16;61.00;;;30.15;;
52708;SDS011;38606;52.986;6.980;2024-01-11T10:03:42;61.78;;;30.50;;
52708;SDS011;38606;52.986;6.980;2024-01-11T10:06:08;54.15;;;27.55;;
52708;SDS011;38606;52.986;6.980;2024-01-11T10:08:35;61.40;;;29.08;;
52708;SDS011;38606;52.986;6.980;2024-01-11T10:11:01;59.88;;;27.73;;
52708;SDS011;38606;52.986;6.980;2024-01-11T10:13:28;64.53;;;29.58;;
52708;SDS011;38606;52.986;6.980;2024-01-11T10:18:38;53.85;;;26.30;;
52708;SDS011;38606;52.986;6.980;2024-01-11T10:21:04;52.85;;;27.42;;
52708;SDS011;38606;52.986;6.980;2024-01-11T10:23:34;51.85;;;26.45;;
52708;SDS011;38606;52.986;6.980;2024-01-11T10:26:00;51.45;;;26.23;;
52708;SDS011;38606;52.986;6.980;2024-01-11T10:28:26;48.67;;;25.23;;
52708;SDS011;38606;52.986;6.980;2024-01-11T10:30:53;48.03;;;25.52;;
52708;SDS011;38606;52.986;6.980;2024-01-11T10:33:20;46.40;;;24.27;;
52708;SDS011;38606;52.986;6.980;2024-01-11T10:35:47;45.65;;;24.50;;
52708;SDS011;38606;52.986;6.980;2024-01-11T10:38:16;48.13;;;24.23;;
52708;SDS011;38606;52.986;6.980;2024-01-11T10:40:43;49.00;;;23.95;;
52708;SDS011;38606;52.986;6.980;2024-01-11T10:43:10;45.50;;;24.10;;
52708;SDS011;38606;52.986;6.980;2024-01-11T10:45:40;46.22;;;23.27;;
52708;SDS011;38606;52.986;6.980;2024-01-11T10:48:15;45.63;;;22.85;;
52708;SDS011;38606;52.986;6.980;2024-01-11T10:50:45;43.72;;;22.38;;
52708;SDS011;38606;52.986;6.980;2024-01-11T10:55:46;44.35;;;23.23;;
52708;SDS011;38606;52.986;6.980;2024-01-11T10:58:13;42.15;;;21.48;;
52708;SDS011;38606;52.986;6.980;2024-01-11T11:00:41;41.47;;;20.63;;
52708;SDS011;38606;52.986;6.980;2024-01-11T11:03:07;41.55;;;20.65;;
52708;SDS011;38606;52.986;6.980;2024-01-11T11:05:36;42.67;;;22.30;;
52708;SDS011;38606;52.986;6.980;2024-01-11T11:08:03;42.85;;;22.10;;
52708;SDS011;38606;52.986;6.980;2024-01-11T11:10:31;43.70;;;22.08;;
52708;SDS011;38606;52.986;6.980;2024-01-11T11:12:59;42.92;;;22.63;;
52708;SDS011;38606;52.986;6.980;2024-01-11T11:15:28;43.05;;;22.40;;
52708;SDS011;38606;52.986;6.980;2024-01-11T11:17:54;41.85;;;21.88;;
52708;SDS011;38606;52.986;6.980;2024-01-11T11:20:21;41.75;;;20.95;;
52708;SDS011;38606;52.986;6.980;2024-01-11T11:23:03;41.30;;;21.73;;
52708;SDS011;38606;52.986;6.980;2024-01-11T11:25:30;37.77;;;19.73;;
52708;SDS011;38606;52.986;6.980;2024-01-11T11:27:56;37.80;;;20.98;;
52708;SDS011;38606;52.986;6.980;2024-01-11T11:30:22;40.08;;;21.60;;
52708;SDS011;38606;52.986;6.980;2024-01-11T11:32:48;41.40;;;20.83;;
52708;SDS011;38606;52.986;6.980;2024-01-11T11:35:14;40.90;;;21.15;;
52708;SDS011;38606;52.986;6.980;2024-01-11T11:37:40;39.33;;;21.42;;
52708;SDS011;38606;52.986;6.980;2024-01-11T11:40:08;41.10;;;20.70;;
52708;SDS011;38606;52.986;6.980;2024-01-11T11:42:36;41.08;;;21.67;;
52708;SDS011;38606;52.986;6.980;2024-01-11T11:45:02;38.03;;;19.60;;
52708;SDS011;38606;52.986;6.980;2024-01-11T11:47:35;41.58;;;20.92;;
52708;SDS011;38606;52.986;6.980;2024-01-11T11:52:34;37.50;;;20.05;;
52708;SDS011;38606;52.986;6.980;2024-01-11T11:55:02;35.60;;;19.58;;
52708;SDS011;38606;52.986;6.980;2024-01-11T11:57:28;38.45;;;20.00;;
52708;SDS011;38606;52.986;6.980;2024-01-11T11:59:56;39.17;;;20.00;;
52708;SDS011;38606;52.986;6.980;2024-01-11T12:02:25;35.90;;;19.70;;
52708;SDS011;38606;52.986;6.980;2024-01-11T12:04:52;39.40;;;19.27;;
52708;SDS011;38606;52.986;6.980;2024-01-11T12:07:21;37.15;;;19.75;;
52708;SDS011;38606;52.986;6.980;2024-01-11T12:09:48;37.15;;;19.52;;
52708;SDS011;38606;52.986;6.980;2024-01-11T12:12:15;36.00;;;19.55;;
52708;SDS011;38606;52.986;6.980;2024-01-11T12:14:43;40.72;;;21.00;;
52708;SDS011;38606;52.986;6.980;2024-01-11T12:17:09;38.85;;;19.52;;
52708;SDS011;38606;52.986;6.980;2024-01-11T12:19:35;34.97;;;19.88;;
52708;SDS011;38606;52.986;6.980;2024-01-11T12:22:01;39.00;;;20.70;;
52708;SDS011;38606;52.986;6.980;2024-01-11T12:24:27;37.90;;;20.35;;
52708;SDS011;38606;52.986;6.980;2024-01-11T12:26:52;36.40;;;19.52;;
52708;SDS011;38606;52.986;6.980;2024-01-11T12:29:22;37.63;;;19.63;;
52708;SDS011;38606;52.986;6.980;2024-01-11T12:31:49;41.55;;;22.35;;
52708;SDS011;38606;52.986;6.980;2024-01-11T12:34:15;41.72;;;22.52;;
52708;SDS011;38606;52.986;6.980;2024-01-11T12:36:42;42.28;;;21.88;;
52708;SDS011;38606;52.986;6.980;2024-01-11T12:39:08;44.22;;;22.05;;
52708;SDS011;38606;52.986;6.980;2024-01-11T12:41:38;39.17;;;20.88;;
52708;SDS011;38606;52.986;6.980;2024-01-11T12:44:04;40.45;;;20.63;;
52708;SDS011;38606;52.986;6.980;2024-01-11T12:46:31;44.75;;;22.10;;
52708;SDS011;38606;52.986;6.980;2024-01-11T12:48:57;42.47;;;21.23;;
52708;SDS011;38606;52.986;6.980;2024-01-11T12:51:23;43.83;;;21.77;;
52708;SDS011;38606;52.986;6.980;2024-01-11T12:53:51;39.85;;;20.50;;
52708;SDS011;38606;52.986;6.980;2024-01-11T12:56:18;42.20;;;21.90;;
52708;SDS011;38606;52.986;6.980;2024-01-11T12:58:46;44.00;;;22.13;;
52708;SDS011;38606;52.986;6.980;2024-01-11T13:01:12;41.90;;;21.95;;
52708;SDS011;38606;52.986;6.980;2024-01-11T13:03:43;47.08;;;22.00;;
52708;SDS011;38606;52.986;6.980;2024-01-11T13:06:11;46.80;;;23.27;;
52708;SDS011;38606;52.986;6.980;2024-01-11T13:08:37;46.78;;;23.33;;
52708;SDS011;38606;52.986;6.980;2024-01-11T13:11:07;47.80;;;21.67;;
52708;SDS011;38606;52.986;6.980;2024-01-11T13:13:36;44.45;;;22.65;;
52708;SDS011;38606;52.986;6.980;2024-01-11T13:16:02;45.97;;;23.02;;
52708;SDS011;38606;52.986;6.980;2024-01-11T13:18:32;45.08;;;23.02;;
52708;SDS011;38606;52.986;6.980;2024-01-11T13:20:58;49.05;;;23.00;;
52708;SDS011;38606;52.986;6.980;2024-01-11T13:23:24;46.75;;;23.15;;
52708;SDS011;38606;52.986;6.980;2024-01-11T13:25:50;53.05;;;24.98;;
52708;SDS011;38606;52.986;6.980;2024-01-11T13:28:16;50.05;;;25.58;;
52708;SDS011;38606;52.986;6.980;2024-01-11T13:30:44;48.50;;;22.80;;
52708;SDS011;38606;52.986;6.980;2024-01-11T13:33:10;50.85;;;23.02;;
52708;SDS011;38606;52.986;6.980;2024-01-11T13:35:37;45.78;;;22.70;;
52708;SDS011;38606;52.986;6.980;2024-01-11T13:38:03;48.70;;;23.85;;
52708;SDS011;38606;52.986;6.980;2024-01-11T13:40:30;52.30;;;23.17;;
52708;SDS011;38606;52.986;6.980;2024-01-11T13:42:57;45.13;;;22.92;;
52708;SDS011;38606;52.986;6.980;2024-01-11T13:45:23;45.10;;;21.98;;
52708;SDS011;38606;52.986;6.980;2024-01-11T13:47:49;47.22;;;23.52;;
52708;SDS011;38606;52.986;6.980;2024-01-11T13:50:15;45.97;;;22.48;;
52708;SDS011;38606;52.986;6.980;2024-01-11T13:52:43;49.88;;;22.52;;
52708;SDS011;38606;52.986;6.980;2024-01-11T13:55:10;44.45;;;22.33;;
52708;SDS011;38606;52.986;6.980;2024-01-11T13:57:36;46.80;;;22.80;;
52708;SDS011;38606;52.986;6.980;2024-01-11T14:00:05;46.35;;;23.23;;
52708;SDS011;38606;52.986;6.980;2024-01-11T14:02:32;52.45;;;23.52;;
52708;SDS011;38606;52.986;6.980;2024-01-11T14:04:58;50.83;;;24.58;;
52708;SDS011;38606;52.986;6.980;2024-01-11T14:07:24;51.22;;;23.75;;
52708;SDS011;38606;52.986;6.980;2024-01-11T14:09:50;46.00;;;23.40;;
52708;SDS011;38606;52.986;6.980;2024-01-11T14:12:16;50.55;;;23.80;;
52708;SDS011;38606;52.986;6.980;2024-01-11T14:14:42;47.20;;;22.83;;
52708;SDS011;38606;52.986;6.980;2024-01-11T14:17:08;46.92;;;21.90;;
52708;SDS011;38606;52.986;6.980;2024-01-11T14:19:34;50.03;;;23.00;;
52708;SDS011;38606;52.986;6.980;2024-01-11T14:22:00;50.78;;;23.63;;
52708;SDS011;38606;52.986;6.980;2024-01-11T14:24:27;51.67;;;23.35;;
52708;SDS011;38606;52.986;6.980;2024-01-11T14:26:53;48.72;;;23.75;;